Flagler, Colorado
Current Conditions -  °F | °C
As of 11:55 AM on Thursday 18 Dec 2014 (Local Time) from KLIC Reporting Station
Clear Clear  
Wind Chill: 36°   Ceiling: Unl
Heat Index: 42°   Visibility: 10mi
Dew Point: 23°   Wind: 10mph
Humidity: 47%   Direction: 140°SE
Pressure: 30.04"   Gusts: NA
Location:  39.29°N, 103.07°W
Report Text: KLIC 181855Z AUTO 14009KT 10SM CLR 06/M05 A3004 RMK AO2 SLP187 T00561050
Loading
Personal Weather Stations






























Interactive Weather Map New forecast layout! Learn more

10-Day Weather Forecast

Advertisements
Track Severe Weather on mobile